Time;durP1;ratioP1;P1;durP2;ratioP2;P2;SDS_P1;SDS_P2;PMS_P1;PMS_P2;Temp;Humidity;BMP_temperature;BMP_pressure;BME280_temperature;BME280_humidity;BME280_pressure;Samples;Min_cycle;Max_cycle;Signal;HPM_P1;HPM_P2
2023/09/11 00:02:06;;;;;;;9.75;7.25;;;;;;;;;;5045936;28;20154;-83
2023/09/11 00:04:32;;;;;;;9.18;6.78;;;;;;;;;;5045903;28;20094;-83
2023/09/11 00:06:57;;;;;;;11.00;7.00;;;;;;;;;;5043616;28;20058;-85
2023/09/11 00:09:23;;;;;;;11.10;6.90;;;;;;;;;;5044483;28;20032;-84
2023/09/11 00:11:48;;;;;;;8.30;6.95;;;;;;;;;;5044700;28;20471;-84
2023/09/11 00:14:13;;;;;;;11.32;6.80;;;;;;;;;;5038497;28;20030;-83
2023/09/11 00:16:41;;;;;;;9.50;7.30;;;;;;;;;;5035726;28;20037;-83
2023/09/11 00:19:09;;;;;;;12.55;7.18;;;;;;;;;;5037978;28;20029;-84
2023/09/11 00:21:35;;;;;;;13.30;7.20;;;;;;;;;;5039167;28;20029;-83
2023/09/11 00:24:00;;;;;;;9.35;7.10;;;;;;;;;;5041016;28;20040;-83
2023/09/11 00:26:26;;;;;;;9.35;6.72;;;;;;;;;;5042381;28;20037;-84
2023/09/11 00:28:52;;;;;;;8.95;6.72;;;;;;;;;;5041364;28;20055;-84
2023/09/11 00:31:17;;;;;;;7.82;6.75;;;;;;;;;;5024918;28;20048;-83
2023/09/11 00:33:44;;;;;;;8.65;6.45;;;;;;;;;;5046503;28;20033;-82
2023/09/11 00:36:09;;;;;;;8.60;6.80;;;;;;;;;;5040372;28;20029;-83
2023/09/11 00:38:34;;;;;;;8.68;6.70;;;;;;;;;;5037837;28;20045;-83
2023/09/11 00:41:00;;;;;;;7.72;6.43;;;;;;;;;;5039996;28;20059;-83
2023/09/11 00:43:25;;;;;;;10.68;6.72;;;;;;;;;;5047264;28;20032;-84
2023/09/11 00:45:51;;;;;;;9.13;6.75;;;;;;;;;;5044492;28;20029;-84
2023/09/11 00:48:18;;;;;;;8.45;6.30;;;;;;;;;;5039489;28;20052;-82
2023/09/11 00:50:44;;;;;;;8.25;6.90;;;;;;;;;;5037538;28;20041;-83
2023/09/11 00:53:11;;;;;;;9.82;6.80;;;;;;;;;;5022663;28;20033;-83
2023/09/11 00:55:37;;;;;;;12.00;6.93;;;;;;;;;;5044366;28;20083;-83
2023/09/11 00:58:02;;;;;;;9.90;6.95;;;;;;;;;;5044323;28;20037;-83
2023/09/11 01:00:28;;;;;;;8.60;6.97;;;;;;;;;;5046509;28;20116;-84
2023/09/11 01:02:54;;;;;;;9.77;6.78;;;;;;;;;;5050878;28;20081;-84
2023/09/11 01:05:22;;;;;;;10.77;6.80;;;;;;;;;;5049108;28;20105;-84
2023/09/11 01:07:47;;;;;;;11.00;7.32;;;;;;;;;;5038856;28;20382;-85
2023/09/11 01:10:13;;;;;;;10.10;7.13;;;;;;;;;;5038503;28;20033;-85
2023/09/11 01:12:39;;;;;;;8.18;7.10;;;;;;;;;;5041570;28;20033;-84
2023/09/11 01:15:07;;;;;;;9.70;6.88;;;;;;;;;;5049761;28;20029;-84
2023/09/11 01:17:45;;;;;;;8.88;6.93;;;;;;;;;;5047955;28;20044;-84
2023/09/11 01:20:29;;;;;;;10.02;6.90;;;;;;;;;;5046286;28;20030;-83
2023/09/11 01:23:13;;;;;;;12.05;7.18;;;;;;;;;;5042742;28;20196;-83
2023/09/11 01:25:58;;;;;;;;;;;;;;;;;;5044563;28;20040;-81
2023/09/11 01:28:38;;;;;;;11.88;6.55;;;;;;;;;;5043279;28;19916;-84
2023/09/11 01:31:04;;;;;;;9.85;7.03;;;;;;;;;;5038349;28;20040;-84
2023/09/11 01:33:30;;;;;;;9.18;6.80;;;;;;;;;;5045197;28;20063;-84
2023/09/11 01:35:55;;;;;;;9.65;6.97;;;;;;;;;;5050511;28;20041;-84
2023/09/11 01:38:21;;;;;;;8.48;7.28;;;;;;;;;;5039467;28;20033;-83
2023/09/11 01:40:50;;;;;;;7.28;6.47;;;;;;;;;;5041201;28;20108;-85
2023/09/11 01:43:18;;;;;;;7.70;6.88;;;;;;;;;;5050471;28;20044;-85
2023/09/11 01:45:45;;;;;;;8.02;6.72;;;;;;;;;;5044031;28;20479;-84
2023/09/11 01:48:12;;;;;;;9.38;6.57;;;;;;;;;;5048216;28;20029;-83
2023/09/11 01:50:39;;;;;;;8.50;6.80;;;;;;;;;;5025379;28;20033;-83
2023/09/11 01:53:05;;;;;;;9.10;6.75;;;;;;;;;;5041113;28;20387;-83
2023/09/11 01:55:35;;;;;;;7.72;6.47;;;;;;;;;;5038260;28;20087;-83
2023/09/11 01:58:01;;;;;;;11.40;6.57;;;;;;;;;;5044039;28;20513;-83
2023/09/11 02:00:26;;;;;;;8.05;6.50;;;;;;;;;;5049226;28;20056;-84
2023/09/11 02:02:55;;;;;;;8.63;6.78;;;;;;;;;;5047732;28;20041;-84
2023/09/11 02:05:23;;;;;;;10.18;6.72;;;;;;;;;;5039775;28;20044;-84
2023/09/11 02:07:49;;;;;;;9.13;6.70;;;;;;;;;;5033347;28;20055;-84
2023/09/11 02:10:16;;;;;;;9.95;6.53;;;;;;;;;;5044160;28;20033;-83
2023/09/11 02:12:41;;;;;;;13.60;7.25;;;;;;;;;;5039648;28;20036;-83
2023/09/11 02:15:07;;;;;;;7.10;6.40;;;;;;;;;;5043166;28;20026;-83
2023/09/11 02:17:33;;;;;;;9.05;6.50;;;;;;;;;;5036448;28;20033;-83
2023/09/11 02:19:58;;;;;;;10.15;6.75;;;;;;;;;;5039144;28;20045;-84
2023/09/11 02:22:24;;;;;;;8.45;6.78;;;;;;;;;;5048285;28;20029;-84
2023/09/11 02:24:49;;;;;;;11.25;6.78;;;;;;;;;;5053459;28;20040;-84
2023/09/11 02:27:14;;;;;;;7.78;6.88;;;;;;;;;;5043743;28;20041;-83
2023/09/11 02:29:40;;;;;;;9.68;7.60;;;;;;;;;;5044005;28;20040;-83
2023/09/11 02:32:05;;;;;;;8.90;6.72;;;;;;;;;;5041276;28;20055;-83
2023/09/11 02:34:31;;;;;;;8.90;7.32;;;;;;;;;;5037166;28;20048;-84
2023/09/11 02:36:57;;;;;;;7.57;6.72;;;;;;;;;;5042537;28;20103;-84
2023/09/11 02:39:22;;;;;;;11.02;7.35;;;;;;;;;;5036591;28;20029;-84
2023/09/11 02:41:48;;;;;;;9.73;7.63;;;;;;;;;;5045353;28;20043;-84
2023/09/11 02:44:13;;;;;;;8.60;7.30;;;;;;;;;;5042400;28;20044;-83
2023/09/11 02:46:39;;;;;;;11.60;7.60;;;;;;;;;;5040011;28;20026;-82
2023/09/11 02:49:04;;;;;;;12.80;7.60;;;;;;;;;;5039544;28;20433;-82
2023/09/11 02:51:30;;;;;;;9.88;7.70;;;;;;;;;;5042530;28;20036;-83
2023/09/11 02:53:56;;;;;;;9.32;7.50;;;;;;;;;;5049869;28;20135;-83
2023/09/11 02:56:22;;;;;;;9.45;7.43;;;;;;;;;;5038039;28;20061;-84
2023/09/11 02:58:47;;;;;;;8.55;6.82;;;;;;;;;;5032118;28;20037;-84
2023/09/11 03:01:13;;;;;;;9.88;8.18;;;;;;;;;;5047440;28;20035;-83
2023/09/11 03:03:39;;;;;;;10.25;8.00;;;;;;;;;;5033644;28;20044;-82
2023/09/11 03:06:06;;;;;;;9.98;7.88;;;;;;;;;;5057837;28;20040;-83
2023/09/11 03:08:31;;;;;;;10.27;7.70;;;;;;;;;;5040096;28;20029;-83
2023/09/11 03:11:07;;;;;;;10.57;8.25;;;;;;;;;;5047959;28;20091;-83
2023/09/11 03:13:33;;;;;;;11.32;8.27;;;;;;;;;;5029633;28;20029;-83
2023/09/11 03:16:10;;;;;;;9.27;7.50;;;;;;;;;;5053643;28;20544;-84
2023/09/11 03:18:37;;;;;;;10.57;7.70;;;;;;;;;;5040002;28;20097;-84
2023/09/11 03:21:03;;;;;;;9.85;8.02;;;;;;;;;;5039877;28;20032;-84
2023/09/11 03:23:29;;;;;;;11.13;7.50;;;;;;;;;;5046922;28;20029;-84
2023/09/11 03:25:55;;;;;;;9.52;7.35;;;;;;;;;;5044338;28;20033;-83
2023/09/11 03:28:20;;;;;;;10.73;6.93;;;;;;;;;;5045532;28;20025;-83
2023/09/11 03:30:46;;;;;;;11.82;7.07;;;;;;;;;;5042677;28;20710;-83
2023/09/11 03:33:12;;;;;;;9.18;6.78;;;;;;;;;;5042721;28;20048;-83
2023/09/11 03:35:38;;;;;;;8.65;6.90;;;;;;;;;;5040456;28;20036;-83
2023/09/11 03:38:04;;;;;;;11.80;7.00;;;;;;;;;;5037788;28;20030;-84
2023/09/11 03:40:29;;;;;;;7.80;6.80;;;;;;;;;;5036067;28;20036;-84
2023/09/11 03:42:55;;;;;;;9.38;7.20;;;;;;;;;;5051705;28;20078;-83
2023/09/11 03:45:21;;;;;;;8.48;7.45;;;;;;;;;;5043607;28;20021;-82
2023/09/11 03:47:46;;;;;;;12.25;7.15;;;;;;;;;;5038469;28;20467;-83
2023/09/11 03:50:12;;;;;;;12.52;7.90;;;;;;;;;;5044951;28;20483;-83
2023/09/11 03:52:37;;;;;;;9.13;7.70;;;;;;;;;;5051712;28;20037;-83
2023/09/11 03:55:04;;;;;;;9.48;7.53;;;;;;;;;;5051648;28;20063;-84
2023/09/11 03:57:29;;;;;;;9.52;7.15;;;;;;;;;;5044430;28;20165;-84
2023/09/11 03:59:55;;;;;;;9.50;6.95;;;;;;;;;;5045599;28;20711;-84
2023/09/11 04:02:20;;;;;;;9.20;7.00;;;;;;;;;;5036860;28;20032;-83
2023/09/11 04:04:46;;;;;;;10.65;7.75;;;;;;;;;;5053830;28;20075;-83
2023/09/11 04:07:12;;;;;;;8.13;6.88;;;;;;;;;;5044887;28;20041;-82
2023/09/11 04:09:37;;;;;;;8.07;6.97;;;;;;;;;;5039508;28;20029;-83
2023/09/11 04:12:03;;;;;;;9.90;7.32;;;;;;;;;;5047425;28;20036;-84
2023/09/11 04:14:29;;;;;;;9.68;7.20;;;;;;;;;;5039703;28;20021;-84
2023/09/11 04:16:54;;;;;;;10.00;7.28;;;;;;;;;;5049251;28;20059;-84
2023/09/11 04:19:20;;;;;;;8.23;7.03;;;;;;;;;;5038921;28;20030;-83
2023/09/11 04:21:45;;;;;;;8.05;6.93;;;;;;;;;;5040348;28;20103;-83
2023/09/11 04:24:14;;;;;;;8.30;7.22;;;;;;;;;;5046373;28;20110;-83
2023/09/11 04:26:41;;;;;;;9.45;7.25;;;;;;;;;;5046339;28;20026;-83
2023/09/11 04:29:11;;;;;;;12.27;7.90;;;;;;;;;;5044228;28;20025;-82
2023/09/11 04:31:38;;;;;;;9.65;7.70;;;;;;;;;;5025329;28;20390;-84
2023/09/11 04:34:04;;;;;;;9.85;7.45;;;;;;;;;;5049473;28;20021;-84
2023/09/11 04:36:30;;;;;;;7.90;6.97;;;;;;;;;;5037950;28;20029;-84
2023/09/11 04:38:55;;;;;;;9.82;6.93;;;;;;;;;;5049185;28;20041;-83
2023/09/11 04:41:21;;;;;;;13.25;7.35;;;;;;;;;;5041012;28;20051;-83
2023/09/11 04:43:47;;;;;;;9.07;7.80;;;;;;;;;;5035683;28;20152;-83
2023/09/11 04:46:12;;;;;;;8.85;7.32;;;;;;;;;;5049054;28;20044;-83
2023/09/11 04:48:38;;;;;;;9.80;7.68;;;;;;;;;;5038299;28;20033;-82
2023/09/11 04:51:05;;;;;;;9.23;7.53;;;;;;;;;;5031375;28;20146;-84
2023/09/11 04:53:30;;;;;;;10.05;7.38;;;;;;;;;;5048914;28;20375;-85
2023/09/11 04:55:56;;;;;;;15.63;11.98;;;;;;;;;;5037507;28;20037;-83
2023/09/11 04:58:22;;;;;;;13.77;11.10;;;;;;;;;;5039091;28;20510;-83
2023/09/11 05:00:49;;;;;;;10.23;8.07;;;;;;;;;;5039388;28;20071;-83
2023/09/11 05:03:15;;;;;;;9.93;8.38;;;;;;;;;;5038616;28;20124;-83
2023/09/11 05:05:41;;;;;;;13.00;8.02;;;;;;;;;;5043972;28;20490;-83
2023/09/11 05:08:07;;;;;;;11.05;7.60;;;;;;;;;;5036156;28;20068;-85
2023/09/11 05:10:34;;;;;;;10.43;7.53;;;;;;;;;;5049200;28;20533;-85
2023/09/11 05:12:59;;;;;;;11.43;7.60;;;;;;;;;;5032898;28;20059;-84
2023/09/11 05:15:25;;;;;;;9.80;7.57;;;;;;;;;;5036961;28;20209;-83
2023/09/11 05:17:51;;;;;;;10.90;7.53;;;;;;;;;;5040858;28;20030;-83
2023/09/11 05:20:16;;;;;;;9.82;8.05;;;;;;;;;;5036188;28;20083;-83
2023/09/11 05:22:42;;;;;;;8.98;7.93;;;;;;;;;;5033001;28;20025;-83
2023/09/11 05:25:08;;;;;;;9.27;8.25;;;;;;;;;;5036885;28;20378;-83
2023/09/11 05:27:34;;;;;;;10.77;8.48;;;;;;;;;;5043997;28;20071;-84
2023/09/11 05:29:59;;;;;;;11.25;8.73;;;;;;;;;;5045728;28;20056;-84
2023/09/11 05:32:25;;;;;;;11.55;8.45;;;;;;;;;;5042075;28;20075;-83
2023/09/11 05:34:53;;;;;;;10.20;8.50;;;;;;;;;;5040641;28;20029;-83
2023/09/11 05:37:19;;;;;;;9.48;8.43;;;;;;;;;;5048213;28;20127;-82
2023/09/11 05:39:45;;;;;;;9.60;8.60;;;;;;;;;;5036152;28;20113;-83
2023/09/11 05:42:11;;;;;;;12.93;8.55;;;;;;;;;;5033133;28;20037;-83
2023/09/11 05:44:36;;;;;;;10.95;9.23;;;;;;;;;;5041163;28;20041;-83
2023/09/11 05:47:03;;;;;;;11.18;8.50;;;;;;;;;;5035579;28;20139;-84
2023/09/11 05:49:28;;;;;;;11.95;8.52;;;;;;;;;;5044649;28;20025;-84
2023/09/11 05:51:55;;;;;;;12.70;8.32;;;;;;;;;;5042965;28;20116;-84
2023/09/11 05:54:20;;;;;;;12.43;8.50;;;;;;;;;;5038334;28;20025;-83
2023/09/11 05:56:46;;;;;;;11.85;8.40;;;;;;;;;;5033991;28;20056;-83
2023/09/11 05:59:11;;;;;;;12.07;9.15;;;;;;;;;;5037485;28;20030;-83
2023/09/11 06:01:37;;;;;;;10.07;8.30;;;;;;;;;;5033345;28;20043;-84
2023/09/11 06:04:03;;;;;;;10.43;8.27;;;;;;;;;;5021814;28;20034;-85
2023/09/11 06:06:28;;;;;;;11.15;8.50;;;;;;;;;;5033567;28;20215;-84
2023/09/11 06:08:55;;;;;;;9.68;8.00;;;;;;;;;;5047060;28;20394;-84
2023/09/11 06:11:20;;;;;;;9.40;8.38;;;;;;;;;;5042954;28;20040;-84
2023/09/11 06:13:48;;;;;;;15.27;8.63;;;;;;;;;;5039762;28;20468;-83
2023/09/11 06:16:13;;;;;;;10.65;8.50;;;;;;;;;;5035779;28;20021;-84
2023/09/11 06:18:39;;;;;;;12.80;8.40;;;;;;;;;;5038652;28;20030;-82
2023/09/11 06:21:04;;;;;;;13.82;8.63;;;;;;;;;;5036708;28;20402;-85
2023/09/11 06:23:30;;;;;;;12.55;8.65;;;;;;;;;;5034405;28;20506;-85
2023/09/11 06:25:55;;;;;;;14.13;8.43;;;;;;;;;;5033663;28;20033;-85
2023/09/11 06:28:21;;;;;;;11.45;8.60;;;;;;;;;;5046631;28;20500;-84
2023/09/11 06:30:46;;;;;;;12.18;8.68;;;;;;;;;;5045556;28;20116;-84
2023/09/11 06:33:12;;;;;;;10.00;7.75;;;;;;;;;;5040373;28;20036;-84
2023/09/11 06:35:37;;;;;;;14.15;8.40;;;;;;;;;;5035014;28;20470;-84
2023/09/11 06:38:03;;;;;;;10.85;7.80;;;;;;;;;;5042536;28;20041;-86
2023/09/11 06:40:28;;;;;;;10.43;7.85;;;;;;;;;;5039112;28;20025;-85
2023/09/11 06:42:54;;;;;;;9.77;8.00;;;;;;;;;;5036938;28;20029;-84
2023/09/11 06:45:20;;;;;;;15.90;8.95;;;;;;;;;;5035781;28;20037;-84
2023/09/11 06:47:45;;;;;;;10.07;8.30;;;;;;;;;;5050664;28;20037;-84
2023/09/11 06:50:11;;;;;;;11.48;8.07;;;;;;;;;;5050690;28;20040;-83
2023/09/11 06:52:39;;;;;;;11.18;7.78;;;;;;;;;;5043836;28;20049;-83
2023/09/11 06:55:07;;;;;;;10.80;8.05;;;;;;;;;;5045480;28;20068;-83
2023/09/11 06:57:33;;;;;;;14.55;8.05;;;;;;;;;;5044639;28;20144;-85
2023/09/11 06:59:58;;;;;;;10.35;8.07;;;;;;;;;;5040837;28;20124;-85
2023/09/11 07:02:24;;;;;;;9.65;8.25;;;;;;;;;;5037938;28;20124;-85
2023/09/11 07:04:49;;;;;;;11.13;8.45;;;;;;;;;;5037076;28;20040;-83
2023/09/11 07:07:15;;;;;;;10.68;7.80;;;;;;;;;;5052505;28;20423;-87
2023/09/11 07:09:40;;;;;;;9.77;7.65;;;;;;;;;;5051172;28;20044;-88
2023/09/11 07:12:06;;;;;;;9.90;7.53;;;;;;;;;;5053477;28;20256;-84
2023/09/11 07:14:31;;;;;;;12.10;7.63;;;;;;;;;;5040606;28;20052;-85
2023/09/11 07:17:00;;;;;;;11.13;7.97;;;;;;;;;;5040717;28;20033;-86
2023/09/11 07:19:26;;;;;;;11.32;7.80;;;;;;;;;;5043508;28;20422;-87
2023/09/11 07:21:52;;;;;;;8.68;7.78;;;;;;;;;;5051575;28;20502;-87
2023/09/11 07:24:17;;;;;;;8.70;7.35;;;;;;;;;;5040118;28;20052;-87
2023/09/11 07:26:43;;;;;;;9.98;7.80;;;;;;;;;;5054342;28;20033;-88
2023/09/11 07:29:08;;;;;;;11.98;7.38;;;;;;;;;;5046993;28;20056;-87
2023/09/11 07:31:35;;;;;;;10.15;7.00;;;;;;;;;;5045726;28;20099;-87
2023/09/11 07:34:01;;;;;;;8.95;7.10;;;;;;;;;;5043341;28;20100;-89
2023/09/11 07:36:28;;;;;;;12.13;7.50;;;;;;;;;;5045245;28;20119;-88
2023/09/11 07:38:54;;;;;;;8.95;6.85;;;;;;;;;;5047366;28;20395;-88
2023/09/11 07:41:20;;;;;;;9.30;7.03;;;;;;;;;;5044054;28;20044;-87
2023/09/11 07:43:49;;;;;;;9.45;7.35;;;;;;;;;;5041117;28;20045;-88
2023/09/11 07:46:19;;;;;;;9.10;7.20;;;;;;;;;;5051563;28;20029;-88
2023/09/11 07:48:45;;;;;;;9.13;7.15;;;;;;;;;;5053803;28;20029;-88
2023/09/11 07:51:12;;;;;;;10.82;7.35;;;;;;;;;;5046029;28;20612;-87
2023/09/11 07:53:38;;;;;;;8.35;6.65;;;;;;;;;;5045618;28;20060;-88
2023/09/11 07:56:07;;;;;;;10.80;6.90;;;;;;;;;;5043042;28;20037;-88
2023/09/11 07:58:34;;;;;;;8.35;6.93;;;;;;;;;;5047482;28;20224;-87
2023/09/11 08:00:59;;;;;;;8.73;6.50;;;;;;;;;;5043728;28;20043;-87
2023/09/11 08:03:25;;;;;;;10.38;6.88;;;;;;;;;;5041674;28;20132;-88
2023/09/11 08:05:50;;;;;;;13.80;7.25;;;;;;;;;;5044649;28;20032;-88
2023/09/11 08:08:16;;;;;;;8.63;7.18;;;;;;;;;;5052694;28;20029;-88
2023/09/11 08:10:41;;;;;;;9.45;7.38;;;;;;;;;;5044642;28;20033;-89
2023/09/11 08:13:07;;;;;;;11.00;7.63;;;;;;;;;;5046549;28;20394;-89
2023/09/11 08:15:32;;;;;;;8.85;7.40;;;;;;;;;;5047403;28;20029;-89
2023/09/11 08:17:58;;;;;;;10.55;7.32;;;;;;;;;;5049272;28;20046;-89
2023/09/11 08:20:23;;;;;;;8.43;7.22;;;;;;;;;;5044049;28;20087;-89
2023/09/11 08:22:49;;;;;;;9.20;7.20;;;;;;;;;;5045524;28;20029;-88
2023/09/11 08:25:15;;;;;;;8.25;6.57;;;;;;;;;;5037947;28;20042;-88
2023/09/11 08:27:40;;;;;;;8.68;7.43;;;;;;;;;;5037934;28;20395;-88
2023/09/11 08:30:06;;;;;;;8.60;6.53;;;;;;;;;;5048090;28;20033;-88
2023/09/11 08:32:35;;;;;;;8.10;6.53;;;;;;;;;;5042307;28;20386;-88
2023/09/11 08:35:00;;;;;;;7.88;7.03;;;;;;;;;;5040309;28;20025;-88
2023/09/11 08:37:26;;;;;;;8.80;6.95;;;;;;;;;;5048626;28;20061;-88
2023/09/11 08:39:54;;;;;;;9.57;6.75;;;;;;;;;;5043304;28;20047;-88
2023/09/11 08:42:19;;;;;;;8.85;6.65;;;;;;;;;;5040290;28;20083;-89
2023/09/11 08:44:45;;;;;;;7.60;6.50;;;;;;;;;;5037190;28;20029;-88
2023/09/11 08:47:13;;;;;;;8.57;6.57;;;;;;;;;;5041755;28;20029;-89
2023/09/11 08:49:43;;;;;;;7.43;6.63;;;;;;;;;;5046854;28;20462;-88
2023/09/11 08:52:13;;;;;;;10.55;6.93;;;;;;;;;;5043289;28;20025;-89
2023/09/11 08:54:42;;;;;;;10.18;6.45;;;;;;;;;;5045266;28;20017;-84
2023/09/11 08:57:12;;;;;;;9.68;6.45;;;;;;;;;;5049811;28;20029;-88
2023/09/11 08:59:40;;;;;;;7.95;6.30;;;;;;;;;;5042283;28;20166;-85
2023/09/11 09:02:07;;;;;;;11.05;6.50;;;;;;;;;;5041174;28;20028;-89
2023/09/11 09:04:34;;;;;;;9.80;6.30;;;;;;;;;;5038381;28;20037;-88
2023/09/11 09:07:00;;;;;;;8.60;6.45;;;;;;;;;;5043887;28;20034;-87
2023/09/11 09:09:26;;;;;;;8.43;6.25;;;;;;;;;;5047206;28;20123;-87
2023/09/11 09:11:52;;;;;;;8.30;6.43;;;;;;;;;;5043246;28;20033;-89
2023/09/11 09:14:19;;;;;;;13.02;6.90;;;;;;;;;;5043190;28;20061;-88
2023/09/11 09:16:48;;;;;;;9.80;6.30;;;;;;;;;;5047164;28;20040;-89
2023/09/11 09:19:13;;;;;;;6.82;5.95;;;;;;;;;;5041105;28;20089;-88
2023/09/11 09:22:07;;;;;;;7.47;6.50;;;;;;;;;;5042377;28;20055;-85
2023/09/11 09:24:32;;;;;;;8.68;6.50;;;;;;;;;;5042701;28;20030;-88
2023/09/11 09:27:00;;;;;;;7.32;6.30;;;;;;;;;;5045860;28;20144;-87
2023/09/11 09:29:26;;;;;;;9.57;6.30;;;;;;;;;;5040329;28;20024;-87
2023/09/11 09:31:52;;;;;;;8.27;6.43;;;;;;;;;;5044115;28;20041;-87
2023/09/11 09:34:17;;;;;;;8.57;6.40;;;;;;;;;;5042042;28;20092;-87
2023/09/11 09:36:54;;;;;;;8.40;6.60;;;;;;;;;;5041590;28;20083;-88
2023/09/11 09:39:20;;;;;;;8.25;6.50;;;;;;;;;;5045948;28;20072;-87
2023/09/11 09:41:56;;;;;;;8.55;6.25;;;;;;;;;;5043718;28;20043;-89
2023/09/11 09:44:33;;;;;;;7.78;6.65;;;;;;;;;;5041333;28;20040;-88
2023/09/11 09:47:13;;;;;;;9.88;6.68;;;;;;;;;;5043219;28;20539;-88
2023/09/11 09:49:56;;;;;;;8.10;6.50;;;;;;;;;;5045903;28;20359;-88
2023/09/11 09:52:26;;;;;;;9.10;6.30;;;;;;;;;;5045955;28;20155;-87
2023/09/11 09:54:54;;;;;;;8.70;5.70;;;;;;;;;;5037702;28;20055;-88
2023/09/11 09:57:22;;;;;;;8.52;6.25;;;;;;;;;;5056968;28;20055;-88
2023/09/11 09:59:50;;;;;;;12.05;5.90;;;;;;;;;;5043658;28;20038;-88
2023/09/11 10:02:31;;;;;;;8.38;6.07;;;;;;;;;;5046180;28;20367;-88
2023/09/11 10:05:02;;;;;;;8.23;6.07;;;;;;;;;;5044117;28;20043;-88
2023/09/11 10:07:42;;;;;;;12.35;6.65;;;;;;;;;;5043145;28;20052;-89
2023/09/11 10:10:27;;;;;;;12.13;7.10;;;;;;;;;;5054503;28;20119;-88
2023/09/11 10:13:12;;;;;;;10.43;6.70;;;;;;;;;;5044249;28;20034;-88
2023/09/11 10:15:40;;;;;;;12.35;6.50;;;;;;;;;;5050718;28;20036;-88
2023/09/11 10:18:08;;;;;;;10.30;6.43;;;;;;;;;;5047749;28;20033;-88
2023/09/11 10:20:34;;;;;;;10.10;6.10;;;;;;;;;;5045731;28;20033;-88
2023/09/11 10:23:04;;;;;;;9.68;6.38;;;;;;;;;;5042792;28;20040;-87
2023/09/11 10:25:42;;;;;;;8.82;6.22;;;;;;;;;;5052582;28;20103;-87
2023/09/11 10:28:13;;;;;;;7.78;6.13;;;;;;;;;;5053961;28;20060;-88
2023/09/11 10:31:02;;;;;;;8.18;6.78;;;;;;;;;;5050772;28;20072;-87
2023/09/11 10:33:29;;;;;;;7.43;6.63;;;;;;;;;;5048001;28;20087;-88
2023/09/11 10:35:58;;;;;;;8.10;6.55;;;;;;;;;;5049083;28;20047;-90
2023/09/11 10:38:28;;;;;;;10.95;6.97;;;;;;;;;;5047640;28;20059;-90
2023/09/11 10:40:57;;;;;;;12.10;6.40;;;;;;;;;;5040715;28;20071;-89
2023/09/11 10:43:23;;;;;;;11.40;6.47;;;;;;;;;;5042911;28;20025;-88
2023/09/11 10:45:49;;;;;;;10.05;6.40;;;;;;;;;;5043099;28;20394;-88
2023/09/11 10:48:30;;;;;;;10.27;6.60;;;;;;;;;;5045253;28;20037;-89
2023/09/11 10:50:58;;;;;;;9.60;6.20;;;;;;;;;;5054322;28;20028;-88
2023/09/11 10:53:31;;;;;;;8.98;6.30;;;;;;;;;;5051131;28;20017;-88
2023/09/11 10:55:59;;;;;;;;;;;;;;;;;;5054288;28;20033;-90
2023/09/11 10:58:28;;;;;;;9.45;5.72;;;;;;;;;;5052069;28;20288;-89
2023/09/11 11:00:54;;;;;;;6.93;5.65;;;;;;;;;;5041753;28;20033;-87
2023/09/11 11:03:23;;;;;;;7.32;5.70;;;;;;;;;;5040582;28;20055;-88
2023/09/11 11:05:49;;;;;;;7.10;5.90;;;;;;;;;;5043632;28;20036;-87
2023/09/11 11:08:15;;;;;;;7.93;5.45;;;;;;;;;;5040131;28;20033;-89
2023/09/11 11:10:41;;;;;;;9.88;6.18;;;;;;;;;;5041311;28;20040;-88
2023/09/11 11:13:09;;;;;;;8.57;5.60;;;;;;;;;;5039049;28;20033;-89
2023/09/11 11:15:35;;;;;;;7.85;5.93;;;;;;;;;;5051015;28;20036;-89
2023/09/11 11:18:30;;;;;;;12.57;5.82;;;;;;;;;;5045317;28;20033;-89
2023/09/11 11:21:04;;;;;;;6.70;5.60;;;;;;;;;;5043783;28;20490;-89
2023/09/11 11:23:35;;;;;;;8.35;5.65;;;;;;;;;;5042231;28;20191;-87
2023/09/11 11:26:06;;;;;;;7.75;4.95;;;;;;;;;;5045437;28;20033;-89
2023/09/11 11:28:45;;;;;;;6.30;5.50;;;;;;;;;;5040705;28;20021;-88
2023/09/11 11:31:18;;;;;;;6.60;5.47;;;;;;;;;;5037888;28;20079;-89
2023/09/11 11:33:49;;;;;;;6.43;5.57;;;;;;;;;;5042136;28;20025;-89
2023/09/11 11:36:19;;;;;;;8.38;5.45;;;;;;;;;;5051099;28;20025;-90
2023/09/11 11:38:45;;;;;;;10.10;5.60;;;;;;;;;;5045277;28;20040;-88
2023/09/11 11:41:12;;;;;;;7.82;5.47;;;;;;;;;;5041521;28;20028;-88
2023/09/11 11:43:39;;;;;;;10.63;5.90;;;;;;;;;;5044554;28;20037;-88
2023/09/11 11:46:08;;;;;;;11.10;5.70;;;;;;;;;;5044190;28;20056;-87
2023/09/11 11:48:34;;;;;;;9.40;5.57;;;;;;;;;;5038417;28;20025;-86
2023/09/11 11:51:00;;;;;;;6.80;6.10;;;;;;;;;;5036654;28;20029;-87
2023/09/11 11:53:25;;;;;;;6.57;5.90;;;;;;;;;;5044921;28;20548;-88
2023/09/11 11:55:54;;;;;;;10.35;5.90;;;;;;;;;;5052076;28;21056;-88
2023/09/11 11:58:19;;;;;;;8.82;6.03;;;;;;;;;;5047907;28;20143;-89
2023/09/11 12:00:59;;;;;;;7.47;5.97;;;;;;;;;;5040196;28;20076;-88
2023/09/11 12:03:30;;;;;;;8.38;5.90;;;;;;;;;;5040160;28;20047;-89
2023/09/11 12:05:59;;;;;;;9.82;5.70;;;;;;;;;;5039720;28;20052;-89
2023/09/11 12:08:25;;;;;;;10.13;5.78;;;;;;;;;;5038266;28;20143;-88
2023/09/11 12:10:51;;;;;;;7.93;5.70;;;;;;;;;;5035497;28;20474;-88
2023/09/11 12:13:18;;;;;;;6.75;5.47;;;;;;;;;;5038266;28;20490;-88
2023/09/11 12:15:54;;;;;;;10.27;5.78;;;;;;;;;;5045092;28;20037;-89
2023/09/11 12:18:22;;;;;;;7.18;5.40;;;;;;;;;;5042107;28;20071;-89
2023/09/11 12:20:59;;;;;;;6.80;5.55;;;;;;;;;;5050526;28;20104;-88
2023/09/11 12:23:25;;;;;;;7.72;5.60;;;;;;;;;;5042893;28;20033;-88
2023/09/11 12:25:51;;;;;;;8.95;5.30;;;;;;;;;;5044385;28;20029;-89
2023/09/11 12:28:18;;;;;;;7.03;5.55;;;;;;;;;;5038014;28;20013;-88
2023/09/11 12:30:44;;;;;;;10.45;5.57;;;;;;;;;;5035478;28;20164;-88
2023/09/11 12:33:14;;;;;;;6.72;5.13;;;;;;;;;;5051164;28;20025;-88
2023/09/11 12:35:40;;;;;;;7.60;5.68;;;;;;;;;;5044315;28;20108;-88
2023/09/11 12:38:10;;;;;;;7.15;5.55;;;;;;;;;;5044593;28;20041;-88
2023/09/11 12:40:42;;;;;;;10.23;5.32;;;;;;;;;;5055947;28;20123;-88
2023/09/11 12:43:11;;;;;;;9.35;5.45;;;;;;;;;;5038957;28;20033;-88
2023/09/11 12:45:37;;;;;;;7.18;5.60;;;;;;;;;;5041164;28;20385;-88
2023/09/11 12:48:04;;;;;;;9.18;5.40;;;;;;;;;;5039254;28;20318;-88
2023/09/11 12:50:31;;;;;;;6.97;5.40;;;;;;;;;;5036391;28;20045;-88
2023/09/11 12:52:58;;;;;;;6.65;5.40;;;;;;;;;;5057385;28;20029;-88
2023/09/11 12:55:26;;;;;;;7.93;5.40;;;;;;;;;;5059712;28;20041;-89
2023/09/11 12:57:57;;;;;;;5.90;5.30;;;;;;;;;;5058870;28;20033;-88
2023/09/11 13:00:28;;;;;;;7.03;5.70;;;;;;;;;;5058408;28;20040;-89
2023/09/11 13:02:58;;;;;;;8.52;5.63;;;;;;;;;;5051331;28;20053;-88
2023/09/11 13:05:27;;;;;;;9.73;5.10;;;;;;;;;;5060576;28;20044;-90
2023/09/11 13:07:53;;;;;;;7.65;5.47;;;;;;;;;;5054592;28;20044;-89
2023/09/11 13:10:20;;;;;;;5.75;5.03;;;;;;;;;;5037574;28;20108;-88
2023/09/11 13:12:46;;;;;;;7.28;5.40;;;;;;;;;;5036439;28;20060;-88
2023/09/11 13:15:11;;;;;;;7.43;5.45;;;;;;;;;;5034107;28;20068;-88
2023/09/11 13:17:37;;;;;;;10.15;5.30;;;;;;;;;;5035663;28;20072;-88
2023/09/11 13:20:03;;;;;;;7.28;5.50;;;;;;;;;;5038329;28;20032;-88
2023/09/11 13:22:29;;;;;;;5.95;5.10;;;;;;;;;;5044043;28;20087;-88
2023/09/11 13:24:55;;;;;;;5.55;5.00;;;;;;;;;;5041460;28;20021;-88
2023/09/11 13:27:21;;;;;;;5.75;4.65;;;;;;;;;;5039249;28;20045;-89
2023/09/11 13:29:46;;;;;;;7.15;4.97;;;;;;;;;;5042210;28;20041;-88
2023/09/11 13:32:12;;;;;;;6.95;4.85;;;;;;;;;;5050236;28;20033;-90
2023/09/11 13:34:38;;;;;;;7.10;5.35;;;;;;;;;;5043678;28;20029;-88
2023/09/11 13:37:03;;;;;;;7.80;5.20;;;;;;;;;;5055785;28;20033;-88
2023/09/11 13:39:29;;;;;;;7.28;5.20;;;;;;;;;;5054528;28;20470;-88
2023/09/11 13:41:55;;;;;;;7.97;4.93;;;;;;;;;;5044933;28;20050;-89
2023/09/11 13:44:20;;;;;;;7.70;5.45;;;;;;;;;;5050003;28;20033;-87
2023/09/11 13:46:46;;;;;;;6.93;5.10;;;;;;;;;;5046893;28;20037;-91
2023/09/11 13:49:11;;;;;;;6.47;5.35;;;;;;;;;;5042070;28;20013;-90
2023/09/11 13:51:36;;;;;;;6.35;4.72;;;;;;;;;;5054658;28;20092;-89
2023/09/11 13:54:02;;;;;;;6.85;4.72;;;;;;;;;;5041041;28;20092;-90
2023/09/11 13:56:27;;;;;;;6.20;4.40;;;;;;;;;;5038512;28;20065;-88
2023/09/11 13:58:53;;;;;;;7.35;5.10;;;;;;;;;;5040690;28;20034;-90
2023/09/11 14:01:19;;;;;;;7.78;4.70;;;;;;;;;;5044753;28;20073;-89
2023/09/11 14:03:44;;;;;;;6.45;4.82;;;;;;;;;;5047485;28;20033;-89
2023/09/11 14:06:10;;;;;;;6.40;4.35;;;;;;;;;;5043018;28;20068;-89
2023/09/11 14:08:35;;;;;;;5.90;4.20;;;;;;;;;;5040175;28;20036;-89
2023/09/11 14:11:01;;;;;;;5.05;4.10;;;;;;;;;;5038468;28;20036;-89
2023/09/11 14:13:26;;;;;;;6.80;4.35;;;;;;;;;;5036847;28;20091;-89
2023/09/11 14:15:52;;;;;;;5.93;4.95;;;;;;;;;;5034690;28;20497;-90
2023/09/11 14:18:20;;;;;;;7.75;4.75;;;;;;;;;;5037303;28;20030;-89
2023/09/11 14:20:45;;;;;;;7.57;4.63;;;;;;;;;;5035046;28;20033;-89
2023/09/11 14:23:11;;;;;;;6.05;4.63;;;;;;;;;;5048898;28;20092;-88
2023/09/11 14:25:36;;;;;;;6.75;4.65;;;;;;;;;;5043331;28;20032;-89
2023/09/11 14:28:03;;;;;;;6.65;4.80;;;;;;;;;;5039550;28;20117;-90
2023/09/11 14:30:28;;;;;;;6.53;4.78;;;;;;;;;;5036529;28;20098;-89
2023/09/11 14:32:54;;;;;;;5.82;4.60;;;;;;;;;;5035944;28;20041;-89
2023/09/11 14:35:19;;;;;;;6.22;4.40;;;;;;;;;;5040114;28;20655;-89
2023/09/11 14:37:45;;;;;;;6.78;4.78;;;;;;;;;;5042168;28;20059;-86
2023/09/11 14:40:12;;;;;;;6.03;4.60;;;;;;;;;;5036478;28;20094;-88